sensor_id;sensor_type;location;lat;lon;timestamp;P1;durP1;ratioP1;P2;durP2;ratioP2
68144;SDS011;55400;51.824;-0.196;2023-09-07T00:03:31;8.30;;;4.60;;
68144;SDS011;55400;51.824;-0.196;2023-09-07T00:07:48;6.20;;;4.40;;
68144;SDS011;55400;51.824;-0.196;2023-09-07T00:12:05;6.20;;;4.80;;
68144;SDS011;55400;51.824;-0.196;2023-09-07T00:15:27;7.50;;;5.00;;
68144;SDS011;55400;51.824;-0.196;2023-09-07T00:19:27;6.90;;;5.00;;
68144;SDS011;55400;51.824;-0.196;2023-09-07T00:23:31;7.70;;;4.90;;
68144;SDS011;55400;51.824;-0.196;2023-09-07T00:27:51;8.10;;;5.00;;
68144;SDS011;55400;51.824;-0.196;2023-09-07T00:31:27;6.20;;;4.90;;
68144;SDS011;55400;51.824;-0.196;2023-09-07T00:35:27;11.10;;;5.10;;
68144;SDS011;55400;51.824;-0.196;2023-09-07T00:39:27;8.40;;;5.70;;
68144;SDS011;55400;51.824;-0.196;2023-09-07T00:43:27;7.90;;;5.10;;
68144;SDS011;55400;51.824;-0.196;2023-09-07T00:47:27;7.10;;;5.60;;
68144;SDS011;55400;51.824;-0.196;2023-09-07T00:51:27;7.90;;;6.10;;
68144;SDS011;55400;51.824;-0.196;2023-09-07T00:55:27;7.30;;;5.20;;
68144;SDS011;55400;51.824;-0.196;2023-09-07T00:59:27;8.50;;;5.60;;
68144;SDS011;55400;51.824;-0.196;2023-09-07T01:03:27;8.10;;;5.40;;
68144;SDS011;55400;51.824;-0.196;2023-09-07T01:07:32;9.40;;;5.50;;
68144;SDS011;55400;51.824;-0.196;2023-09-07T01:11:35;7.80;;;5.70;;
68144;SDS011;55400;51.824;-0.196;2023-09-07T01:15:27;8.60;;;5.70;;
68144;SDS011;55400;51.824;-0.196;2023-09-07T01:19:27;9.60;;;6.00;;
68144;SDS011;55400;51.824;-0.196;2023-09-07T01:23:27;7.10;;;5.90;;
68144;SDS011;55400;51.824;-0.196;2023-09-07T01:27:27;9.10;;;6.50;;
68144;SDS011;55400;51.824;-0.196;2023-09-07T01:31:27;8.30;;;6.10;;
68144;SDS011;55400;51.824;-0.196;2023-09-07T01:35:27;8.70;;;5.70;;
68144;SDS011;55400;51.824;-0.196;2023-09-07T01:39:27;7.50;;;5.60;;
68144;SDS011;55400;51.824;-0.196;2023-09-07T01:47:27;6.70;;;4.80;;
68144;SDS011;55400;51.824;-0.196;2023-09-07T01:51:27;8.10;;;5.00;;
68144;SDS011;55400;51.824;-0.196;2023-09-07T01:55:27;8.00;;;5.20;;
68144;SDS011;55400;51.824;-0.196;2023-09-07T02:03:27;8.60;;;5.60;;
68144;SDS011;55400;51.824;-0.196;2023-09-07T02:07:27;8.50;;;6.30;;
68144;SDS011;55400;51.824;-0.196;2023-09-07T02:11:27;10.30;;;6.10;;
68144;SDS011;55400;51.824;-0.196;2023-09-07T02:15:27;8.20;;;6.20;;
68144;SDS011;55400;51.824;-0.196;2023-09-07T02:19:27;8.00;;;5.80;;
68144;SDS011;55400;51.824;-0.196;2023-09-07T02:23:27;8.50;;;5.70;;
68144;SDS011;55400;51.824;-0.196;2023-09-07T02:27:27;9.10;;;5.80;;
68144;SDS011;55400;51.824;-0.196;2023-09-07T02:31:27;8.90;;;5.80;;
68144;SDS011;55400;51.824;-0.196;2023-09-07T02:35:27;8.50;;;6.10;;
68144;SDS011;55400;51.824;-0.196;2023-09-07T02:39:27;6.80;;;5.60;;
68144;SDS011;55400;51.824;-0.196;2023-09-07T02:43:27;10.20;;;6.60;;
68144;SDS011;55400;51.824;-0.196;2023-09-07T02:47:27;7.70;;;6.40;;
68144;SDS011;55400;51.824;-0.196;2023-09-07T02:51:27;9.10;;;6.60;;
68144;SDS011;55400;51.824;-0.196;2023-09-07T02:55:27;11.50;;;6.70;;
68144;SDS011;55400;51.824;-0.196;2023-09-07T02:59:27;6.60;;;5.20;;
68144;SDS011;55400;51.824;-0.196;2023-09-07T03:03:27;8.20;;;5.50;;
68144;SDS011;55400;51.824;-0.196;2023-09-07T03:07:32;6.90;;;4.70;;
68144;SDS011;55400;51.824;-0.196;2023-09-07T03:11:27;8.80;;;5.10;;
68144;SDS011;55400;51.824;-0.196;2023-09-07T03:17:53;6.40;;;5.00;;
68144;SDS011;55400;51.824;-0.196;2023-09-07T03:19:27;6.40;;;5.00;;
68144;SDS011;55400;51.824;-0.196;2023-09-07T03:23:27;7.60;;;4.90;;
68144;SDS011;55400;51.824;-0.196;2023-09-07T03:27:46;7.50;;;4.50;;
68144;SDS011;55400;51.824;-0.196;2023-09-07T03:32:06;8.10;;;5.30;;
68144;SDS011;55400;51.824;-0.196;2023-09-07T03:35:27;8.70;;;5.70;;
68144;SDS011;55400;51.824;-0.196;2023-09-07T03:39:35;9.50;;;5.80;;
68144;SDS011;55400;51.824;-0.196;2023-09-07T03:43:53;10.40;;;6.60;;
68144;SDS011;55400;51.824;-0.196;2023-09-07T03:47:27;10.60;;;6.50;;
68144;SDS011;55400;51.824;-0.196;2023-09-07T03:51:27;9.50;;;6.60;;
68144;SDS011;55400;51.824;-0.196;2023-09-07T03:55:27;10.70;;;7.40;;
68144;SDS011;55400;51.824;-0.196;2023-09-07T03:59:41;11.20;;;7.30;;
68144;SDS011;55400;51.824;-0.196;2023-09-07T04:04:05;10.70;;;7.40;;
68144;SDS011;55400;51.824;-0.196;2023-09-07T04:07:27;9.80;;;7.40;;
68144;SDS011;55400;51.824;-0.196;2023-09-07T04:13:42;10.40;;;7.70;;
68144;SDS011;55400;51.824;-0.196;2023-09-07T04:15:27;10.70;;;7.30;;
68144;SDS011;55400;51.824;-0.196;2023-09-07T04:19:27;9.90;;;6.90;;
68144;SDS011;55400;51.824;-0.196;2023-09-07T04:25:26;10.50;;;6.40;;
68144;SDS011;55400;51.824;-0.196;2023-09-07T04:27:27;9.30;;;5.90;;
68144;SDS011;55400;51.824;-0.196;2023-09-07T04:31:28;9.20;;;6.90;;
68144;SDS011;55400;51.824;-0.196;2023-09-07T04:39:28;11.20;;;7.20;;
68144;SDS011;55400;51.824;-0.196;2023-09-07T04:43:27;11.70;;;7.50;;
68144;SDS011;55400;51.824;-0.196;2023-09-07T04:47:28;12.50;;;7.70;;
68144;SDS011;55400;51.824;-0.196;2023-09-07T04:51:27;13.50;;;8.30;;
68144;SDS011;55400;51.824;-0.196;2023-09-07T04:55:28;13.00;;;8.40;;
68144;SDS011;55400;51.824;-0.196;2023-09-07T04:59:28;12.30;;;8.00;;
68144;SDS011;55400;51.824;-0.196;2023-09-07T05:03:28;10.90;;;7.70;;
68144;SDS011;55400;51.824;-0.196;2023-09-07T05:07:28;12.20;;;8.20;;
68144;SDS011;55400;51.824;-0.196;2023-09-07T05:11:28;13.50;;;8.70;;
68144;SDS011;55400;51.824;-0.196;2023-09-07T05:15:28;10.40;;;7.90;;
68144;SDS011;55400;51.824;-0.196;2023-09-07T05:19:28;11.40;;;8.10;;
68144;SDS011;55400;51.824;-0.196;2023-09-07T05:23:28;10.40;;;7.80;;
68144;SDS011;55400;51.824;-0.196;2023-09-07T05:27:28;11.20;;;7.80;;
68144;SDS011;55400;51.824;-0.196;2023-09-07T05:31:28;11.50;;;8.00;;
68144;SDS011;55400;51.824;-0.196;2023-09-07T05:35:28;14.10;;;7.80;;
68144;SDS011;55400;51.824;-0.196;2023-09-07T05:39:28;14.00;;;8.20;;
68144;SDS011;55400;51.824;-0.196;2023-09-07T05:43:28;11.70;;;7.70;;
68144;SDS011;55400;51.824;-0.196;2023-09-07T05:47:28;11.30;;;7.90;;
68144;SDS011;55400;51.824;-0.196;2023-09-07T05:51:28;12.30;;;7.90;;
68144;SDS011;55400;51.824;-0.196;2023-09-07T05:55:28;10.40;;;7.60;;
68144;SDS011;55400;51.824;-0.196;2023-09-07T05:59:28;11.00;;;7.80;;
68144;SDS011;55400;51.824;-0.196;2023-09-07T06:03:28;11.30;;;7.40;;
68144;SDS011;55400;51.824;-0.196;2023-09-07T06:07:28;11.50;;;7.70;;
68144;SDS011;55400;51.824;-0.196;2023-09-07T06:11:28;10.20;;;7.90;;
68144;SDS011;55400;51.824;-0.196;2023-09-07T06:15:29;10.50;;;7.80;;
68144;SDS011;55400;51.824;-0.196;2023-09-07T06:19:28;10.80;;;7.30;;
68144;SDS011;55400;51.824;-0.196;2023-09-07T06:27:28;10.00;;;7.40;;
68144;SDS011;55400;51.824;-0.196;2023-09-07T06:31:28;11.90;;;7.50;;
68144;SDS011;55400;51.824;-0.196;2023-09-07T06:35:28;11.70;;;8.00;;
68144;SDS011;55400;51.824;-0.196;2023-09-07T06:39:28;11.20;;;7.50;;
68144;SDS011;55400;51.824;-0.196;2023-09-07T06:43:28;10.80;;;8.00;;
68144;SDS011;55400;51.824;-0.196;2023-09-07T06:47:28;12.60;;;8.10;;
68144;SDS011;55400;51.824;-0.196;2023-09-07T06:51:30;11.10;;;8.00;;
68144;SDS011;55400;51.824;-0.196;2023-09-07T06:55:28;14.30;;;8.40;;
68144;SDS011;55400;51.824;-0.196;2023-09-07T06:59:28;14.00;;;8.70;;
68144;SDS011;55400;51.824;-0.196;2023-09-07T07:03:29;11.30;;;8.20;;
68144;SDS011;55400;51.824;-0.196;2023-09-07T07:07:29;13.50;;;8.50;;
68144;SDS011;55400;51.824;-0.196;2023-09-07T07:11:28;13.20;;;8.20;;
68144;SDS011;55400;51.824;-0.196;2023-09-07T07:15:28;12.00;;;8.20;;
68144;SDS011;55400;51.824;-0.196;2023-09-07T07:19:28;13.00;;;8.60;;
68144;SDS011;55400;51.824;-0.196;2023-09-07T07:23:28;13.10;;;8.70;;
68144;SDS011;55400;51.824;-0.196;2023-09-07T07:27:28;14.50;;;8.20;;
68144;SDS011;55400;51.824;-0.196;2023-09-07T07:31:28;12.30;;;8.00;;
68144;SDS011;55400;51.824;-0.196;2023-09-07T07:35:28;11.60;;;7.80;;
68144;SDS011;55400;51.824;-0.196;2023-09-07T07:39:28;11.30;;;8.10;;
68144;SDS011;55400;51.824;-0.196;2023-09-07T07:43:28;13.80;;;8.50;;
68144;SDS011;55400;51.824;-0.196;2023-09-07T07:47:28;15.80;;;8.90;;
68144;SDS011;55400;51.824;-0.196;2023-09-07T07:51:28;12.20;;;7.80;;
68144;SDS011;55400;51.824;-0.196;2023-09-07T07:55:28;11.90;;;7.90;;
68144;SDS011;55400;51.824;-0.196;2023-09-07T07:59:28;12.00;;;8.80;;
68144;SDS011;55400;51.824;-0.196;2023-09-07T08:03:28;11.60;;;7.80;;
68144;SDS011;55400;51.824;-0.196;2023-09-07T08:07:28;13.00;;;8.40;;
68144;SDS011;55400;51.824;-0.196;2023-09-07T08:11:28;10.60;;;7.50;;
68144;SDS011;55400;51.824;-0.196;2023-09-07T08:15:29;11.60;;;7.60;;
68144;SDS011;55400;51.824;-0.196;2023-09-07T08:19:28;12.70;;;8.30;;
68144;SDS011;55400;51.824;-0.196;2023-09-07T08:23:29;11.30;;;7.60;;
68144;SDS011;55400;51.824;-0.196;2023-09-07T08:27:29;13.40;;;7.40;;
68144;SDS011;55400;51.824;-0.196;2023-09-07T08:35:28;10.40;;;7.20;;
68144;SDS011;55400;51.824;-0.196;2023-09-07T08:39:28;13.10;;;8.30;;
68144;SDS011;55400;51.824;-0.196;2023-09-07T08:43:28;12.00;;;8.00;;
68144;SDS011;55400;51.824;-0.196;2023-09-07T08:47:29;10.70;;;6.90;;
68144;SDS011;55400;51.824;-0.196;2023-09-07T08:51:29;11.90;;;6.70;;
68144;SDS011;55400;51.824;-0.196;2023-09-07T08:55:28;12.60;;;7.00;;
68144;SDS011;55400;51.824;-0.196;2023-09-07T08:59:29;8.30;;;6.40;;
68144;SDS011;55400;51.824;-0.196;2023-09-07T09:03:28;11.50;;;6.80;;
68144;SDS011;55400;51.824;-0.196;2023-09-07T09:07:29;10.00;;;6.00;;
68144;SDS011;55400;51.824;-0.196;2023-09-07T09:11:28;8.30;;;6.20;;
68144;SDS011;55400;51.824;-0.196;2023-09-07T09:15:29;10.30;;;6.50;;
68144;SDS011;55400;51.824;-0.196;2023-09-07T09:19:30;8.80;;;5.90;;
68144;SDS011;55400;51.824;-0.196;2023-09-07T09:23:31;8.60;;;5.60;;
68144;SDS011;55400;51.824;-0.196;2023-09-07T09:27:29;6.60;;;4.60;;
68144;SDS011;55400;51.824;-0.196;2023-09-07T09:31:29;6.60;;;4.30;;
68144;SDS011;55400;51.824;-0.196;2023-09-07T09:35:28;6.10;;;4.40;;
68144;SDS011;55400;51.824;-0.196;2023-09-07T09:39:29;8.80;;;4.40;;
68144;SDS011;55400;51.824;-0.196;2023-09-07T09:43:29;5.60;;;3.30;;
68144;SDS011;55400;51.824;-0.196;2023-09-07T09:47:30;5.50;;;3.80;;
68144;SDS011;55400;51.824;-0.196;2023-09-07T09:51:30;4.20;;;3.00;;
68144;SDS011;55400;51.824;-0.196;2023-09-07T09:55:30;4.70;;;2.90;;
68144;SDS011;55400;51.824;-0.196;2023-09-07T09:59:28;5.00;;;3.30;;
68144;SDS011;55400;51.824;-0.196;2023-09-07T10:03:31;3.30;;;2.70;;
68144;SDS011;55400;51.824;-0.196;2023-09-07T10:07:41;5.60;;;3.20;;
68144;SDS011;55400;51.824;-0.196;2023-09-07T10:11:30;3.60;;;2.80;;
68144;SDS011;55400;51.824;-0.196;2023-09-07T10:15:29;3.80;;;2.80;;
68144;SDS011;55400;51.824;-0.196;2023-09-07T10:19:29;4.90;;;3.50;;
68144;SDS011;55400;51.824;-0.196;2023-09-07T10:23:37;6.30;;;4.00;;
68144;SDS011;55400;51.824;-0.196;2023-09-07T10:27:36;7.50;;;4.60;;
68144;SDS011;55400;51.824;-0.196;2023-09-07T10:31:29;5.50;;;3.80;;
68144;SDS011;55400;51.824;-0.196;2023-09-07T10:35:34;4.90;;;3.10;;
68144;SDS011;55400;51.824;-0.196;2023-09-07T10:39:30;4.20;;;3.30;;
68144;SDS011;55400;51.824;-0.196;2023-09-07T10:43:47;4.10;;;2.70;;
68144;SDS011;55400;51.824;-0.196;2023-09-07T10:47:29;3.80;;;2.80;;
68144;SDS011;55400;51.824;-0.196;2023-09-07T10:51:29;3.70;;;2.80;;
68144;SDS011;55400;51.824;-0.196;2023-09-07T10:55:36;5.60;;;2.70;;
68144;SDS011;55400;51.824;-0.196;2023-09-07T10:59:29;3.30;;;2.70;;
68144;SDS011;55400;51.824;-0.196;2023-09-07T11:03:29;5.00;;;2.80;;
68144;SDS011;55400;51.824;-0.196;2023-09-07T11:07:29;6.50;;;2.80;;
68144;SDS011;55400;51.824;-0.196;2023-09-07T11:11:31;2.70;;;2.40;;
68144;SDS011;55400;51.824;-0.196;2023-09-07T11:15:29;3.20;;;2.40;;
68144;SDS011;55400;51.824;-0.196;2023-09-07T11:19:31;3.50;;;2.60;;
68144;SDS011;55400;51.824;-0.196;2023-09-07T11:23:30;2.90;;;2.20;;
68144;SDS011;55400;51.824;-0.196;2023-09-07T11:27:29;2.40;;;2.20;;
68144;SDS011;55400;51.824;-0.196;2023-09-07T11:31:29;4.00;;;2.60;;
68144;SDS011;55400;51.824;-0.196;2023-09-07T11:35:29;3.90;;;2.40;;
68144;SDS011;55400;51.824;-0.196;2023-09-07T11:39:29;3.10;;;2.40;;
68144;SDS011;55400;51.824;-0.196;2023-09-07T11:43:29;3.80;;;2.50;;
68144;SDS011;55400;51.824;-0.196;2023-09-07T11:47:29;3.50;;;2.60;;
68144;SDS011;55400;51.824;-0.196;2023-09-07T11:51:29;4.10;;;2.70;;
68144;SDS011;55400;51.824;-0.196;2023-09-07T11:55:29;2.60;;;2.20;;
68144;SDS011;55400;51.824;-0.196;2023-09-07T11:59:29;5.00;;;2.80;;
68144;SDS011;55400;51.824;-0.196;2023-09-07T12:03:29;3.30;;;2.80;;
68144;SDS011;55400;51.824;-0.196;2023-09-07T12:07:29;4.10;;;2.60;;
68144;SDS011;55400;51.824;-0.196;2023-09-07T12:11:29;3.30;;;2.60;;
68144;SDS011;55400;51.824;-0.196;2023-09-07T12:15:29;3.70;;;2.80;;
68144;SDS011;55400;51.824;-0.196;2023-09-07T12:19:29;3.50;;;2.60;;
68144;SDS011;55400;51.824;-0.196;2023-09-07T12:23:29;2.60;;;2.40;;
68144;SDS011;55400;51.824;-0.196;2023-09-07T12:27:29;3.20;;;2.20;;
68144;SDS011;55400;51.824;-0.196;2023-09-07T12:31:29;4.10;;;2.40;;
68144;SDS011;55400;51.824;-0.196;2023-09-07T12:35:29;4.00;;;2.10;;
68144;SDS011;55400;51.824;-0.196;2023-09-07T12:39:29;2.50;;;2.30;;
68144;SDS011;55400;51.824;-0.196;2023-09-07T12:43:29;2.80;;;2.20;;
68144;SDS011;55400;51.824;-0.196;2023-09-07T12:47:29;4.50;;;2.50;;
68144;SDS011;55400;51.824;-0.196;2023-09-07T12:51:29;6.10;;;2.30;;
68144;SDS011;55400;51.824;-0.196;2023-09-07T12:55:29;2.20;;;2.00;;
68144;SDS011;55400;51.824;-0.196;2023-09-07T12:59:29;2.30;;;1.90;;
68144;SDS011;55400;51.824;-0.196;2023-09-07T13:03:29;2.50;;;2.00;;
68144;SDS011;55400;51.824;-0.196;2023-09-07T13:07:29;3.90;;;2.20;;
68144;SDS011;55400;51.824;-0.196;2023-09-07T13:11:29;4.50;;;2.20;;
68144;SDS011;55400;51.824;-0.196;2023-09-07T13:15:29;3.00;;;2.20;;
68144;SDS011;55400;51.824;-0.196;2023-09-07T13:19:29;2.90;;;2.20;;
68144;SDS011;55400;51.824;-0.196;2023-09-07T13:23:29;2.90;;;2.20;;
68144;SDS011;55400;51.824;-0.196;2023-09-07T13:27:29;3.70;;;2.20;;
68144;SDS011;55400;51.824;-0.196;2023-09-07T13:31:29;2.80;;;2.10;;
68144;SDS011;55400;51.824;-0.196;2023-09-07T13:35:29;2.40;;;2.10;;
68144;SDS011;55400;51.824;-0.196;2023-09-07T13:39:29;2.10;;;1.90;;
68144;SDS011;55400;51.824;-0.196;2023-09-07T13:43:29;2.30;;;1.90;;
68144;SDS011;55400;51.824;-0.196;2023-09-07T13:47:29;2.40;;;2.20;;
68144;SDS011;55400;51.824;-0.196;2023-09-07T13:51:29;2.10;;;1.90;;
68144;SDS011;55400;51.824;-0.196;2023-09-07T13:55:29;3.50;;;2.10;;
68144;SDS011;55400;51.824;-0.196;2023-09-07T13:59:29;2.70;;;2.10;;
68144;SDS011;55400;51.824;-0.196;2023-09-07T14:04:22;2.40;;;2.20;;
68144;SDS011;55400;51.824;-0.196;2023-09-07T14:08:57;3.40;;;2.20;;
68144;SDS011;55400;51.824;-0.196;2023-09-07T14:12:56;3.20;;;2.20;;
68144;SDS011;55400;51.824;-0.196;2023-09-07T14:16:56;3.90;;;2.30;;
68144;SDS011;55400;51.824;-0.196;2023-09-07T14:20:56;3.40;;;2.30;;
68144;SDS011;55400;51.824;-0.196;2023-09-07T14:24:56;2.60;;;2.20;;
68144;SDS011;55400;51.824;-0.196;2023-09-07T14:28:56;4.90;;;2.60;;
68144;SDS011;55400;51.824;-0.196;2023-09-07T14:32:56;2.80;;;2.20;;
68144;SDS011;55400;51.824;-0.196;2023-09-07T14:36:56;2.10;;;1.90;;
68144;SDS011;55400;51.824;-0.196;2023-09-07T14:40:56;2.20;;;2.00;;
68144;SDS011;55400;51.824;-0.196;2023-09-07T14:44:56;3.30;;;2.50;;
68144;SDS011;55400;51.824;-0.196;2023-09-07T14:48:56;3.10;;;2.20;;
68144;SDS011;55400;51.824;-0.196;2023-09-07T14:52:56;3.20;;;2.30;;
68144;SDS011;55400;51.824;-0.196;2023-09-07T14:56:56;4.50;;;2.40;;
68144;SDS011;55400;51.824;-0.196;2023-09-07T15:00:56;3.90;;;2.40;;
68144;SDS011;55400;51.824;-0.196;2023-09-07T15:04:56;4.80;;;2.20;;
68144;SDS011;55400;51.824;-0.196;2023-09-07T15:08:56;3.80;;;2.40;;
68144;SDS011;55400;51.824;-0.196;2023-09-07T15:12:56;2.30;;;2.10;;
68144;SDS011;55400;51.824;-0.196;2023-09-07T15:16:56;2.80;;;2.30;;
68144;SDS011;55400;51.824;-0.196;2023-09-07T15:20:56;5.30;;;2.40;;
68144;SDS011;55400;51.824;-0.196;2023-09-07T15:24:56;2.50;;;2.20;;
68144;SDS011;55400;51.824;-0.196;2023-09-07T15:28:56;4.50;;;2.30;;
68144;SDS011;55400;51.824;-0.196;2023-09-07T15:32:56;2.70;;;2.10;;
68144;SDS011;55400;51.824;-0.196;2023-09-07T15:36:56;4.00;;;2.40;;
68144;SDS011;55400;51.824;-0.196;2023-09-07T15:40:56;4.20;;;2.80;;
68144;SDS011;55400;51.824;-0.196;2023-09-07T15:44:56;2.20;;;2.00;;
68144;SDS011;55400;51.824;-0.196;2023-09-07T15:48:57;2.70;;;2.20;;
68144;SDS011;55400;51.824;-0.196;2023-09-07T15:52:56;2.80;;;2.10;;
68144;SDS011;55400;51.824;-0.196;2023-09-07T15:56:56;3.30;;;2.20;;
68144;SDS011;55400;51.824;-0.196;2023-09-07T16:00:57;2.80;;;2.30;;
68144;SDS011;55400;51.824;-0.196;2023-09-07T16:04:56;5.50;;;2.60;;
68144;SDS011;55400;51.824;-0.196;2023-09-07T16:08:56;3.10;;;2.30;;
68144;SDS011;55400;51.824;-0.196;2023-09-07T16:12:56;3.50;;;2.40;;
68144;SDS011;55400;51.824;-0.196;2023-09-07T16:16:56;3.10;;;2.40;;
68144;SDS011;55400;51.824;-0.196;2023-09-07T16:20:57;2.80;;;2.20;;
68144;SDS011;55400;51.824;-0.196;2023-09-07T16:24:57;3.40;;;2.40;;
68144;SDS011;55400;51.824;-0.196;2023-09-07T16:28:57;5.40;;;2.30;;
68144;SDS011;55400;51.824;-0.196;2023-09-07T16:32:56;3.70;;;2.50;;
68144;SDS011;55400;51.824;-0.196;2023-09-07T16:36:56;3.60;;;2.20;;
68144;SDS011;55400;51.824;-0.196;2023-09-07T16:40:57;4.40;;;2.20;;
68144;SDS011;55400;51.824;-0.196;2023-09-07T16:44:56;4.50;;;2.50;;
68144;SDS011;55400;51.824;-0.196;2023-09-07T16:48:57;2.80;;;2.30;;
68144;SDS011;55400;51.824;-0.196;2023-09-07T16:52:57;3.40;;;2.30;;
68144;SDS011;55400;51.824;-0.196;2023-09-07T16:56:57;4.90;;;2.50;;
68144;SDS011;55400;51.824;-0.196;2023-09-07T17:01:02;4.50;;;2.40;;
68144;SDS011;55400;51.824;-0.196;2023-09-07T17:04:57;2.90;;;2.10;;
68144;SDS011;55400;51.824;-0.196;2023-09-07T17:08:57;5.00;;;2.50;;
68144;SDS011;55400;51.824;-0.196;2023-09-07T17:12:57;2.40;;;2.00;;
68144;SDS011;55400;51.824;-0.196;2023-09-07T17:16:57;4.00;;;2.30;;
68144;SDS011;55400;51.824;-0.196;2023-09-07T17:21:03;3.10;;;2.20;;
68144;SDS011;55400;51.824;-0.196;2023-09-07T17:28:57;3.90;;;2.30;;
68144;SDS011;55400;51.824;-0.196;2023-09-07T17:32:57;2.50;;;2.00;;
68144;SDS011;55400;51.824;-0.196;2023-09-07T17:36:57;3.60;;;2.40;;
68144;SDS011;55400;51.824;-0.196;2023-09-07T17:40:57;2.40;;;2.20;;
68144;SDS011;55400;51.824;-0.196;2023-09-07T17:44:57;2.80;;;2.30;;
68144;SDS011;55400;51.824;-0.196;2023-09-07T17:48:57;2.60;;;2.30;;
68144;SDS011;55400;51.824;-0.196;2023-09-07T17:52:57;2.50;;;2.30;;
68144;SDS011;55400;51.824;-0.196;2023-09-07T17:56:57;3.20;;;2.40;;
68144;SDS011;55400;51.824;-0.196;2023-09-07T18:00:57;3.70;;;2.40;;
68144;SDS011;55400;51.824;-0.196;2023-09-07T18:04:57;3.20;;;2.80;;
68144;SDS011;55400;51.824;-0.196;2023-09-07T18:09:20;3.80;;;2.50;;
68144;SDS011;55400;51.824;-0.196;2023-09-07T18:16:57;3.30;;;2.70;;
68144;SDS011;55400;51.824;-0.196;2023-09-07T18:21:03;3.20;;;2.60;;
68144;SDS011;55400;51.824;-0.196;2023-09-07T18:24:57;4.40;;;2.50;;
68144;SDS011;55400;51.824;-0.196;2023-09-07T18:28:59;3.20;;;2.40;;
68144;SDS011;55400;51.824;-0.196;2023-09-07T18:33:45;3.20;;;2.40;;
68144;SDS011;55400;51.824;-0.196;2023-09-07T18:36:57;2.70;;;2.40;;
68144;SDS011;55400;51.824;-0.196;2023-09-07T18:40:58;2.80;;;2.40;;
68144;SDS011;55400;51.824;-0.196;2023-09-07T18:44:57;4.10;;;2.80;;
68144;SDS011;55400;51.824;-0.196;2023-09-07T18:48:57;3.00;;;2.70;;
68144;SDS011;55400;51.824;-0.196;2023-09-07T18:52:57;4.30;;;2.70;;
68144;SDS011;55400;51.824;-0.196;2023-09-07T18:56:57;3.40;;;2.70;;
68144;SDS011;55400;51.824;-0.196;2023-09-07T19:00:57;3.30;;;2.60;;
68144;SDS011;55400;51.824;-0.196;2023-09-07T19:04:57;5.10;;;3.10;;
68144;SDS011;55400;51.824;-0.196;2023-09-07T19:08:57;5.10;;;3.10;;
68144;SDS011;55400;51.824;-0.196;2023-09-07T19:12:57;5.30;;;3.00;;
68144;SDS011;55400;51.824;-0.196;2023-09-07T19:16:57;4.10;;;2.60;;
68144;SDS011;55400;51.824;-0.196;2023-09-07T19:20:57;4.50;;;2.70;;
68144;SDS011;55400;51.824;-0.196;2023-09-07T19:24:57;4.40;;;2.70;;
68144;SDS011;55400;51.824;-0.196;2023-09-07T19:28:58;4.10;;;2.90;;
68144;SDS011;55400;51.824;-0.196;2023-09-07T19:32:57;6.00;;;2.80;;
68144;SDS011;55400;51.824;-0.196;2023-09-07T19:36:57;4.30;;;3.10;;
68144;SDS011;55400;51.824;-0.196;2023-09-07T19:40:57;4.50;;;3.20;;
68144;SDS011;55400;51.824;-0.196;2023-09-07T19:44:57;4.70;;;2.90;;
68144;SDS011;55400;51.824;-0.196;2023-09-07T19:48:57;6.20;;;4.10;;
68144;SDS011;55400;51.824;-0.196;2023-09-07T19:52:57;3.50;;;3.10;;
68144;SDS011;55400;51.824;-0.196;2023-09-07T19:56:57;4.50;;;3.30;;
68144;SDS011;55400;51.824;-0.196;2023-09-07T20:00:57;6.30;;;3.00;;
68144;SDS011;55400;51.824;-0.196;2023-09-07T20:04:57;5.10;;;3.30;;
68144;SDS011;55400;51.824;-0.196;2023-09-07T20:08:57;4.30;;;3.10;;
68144;SDS011;55400;51.824;-0.196;2023-09-07T20:12:57;3.40;;;3.10;;
68144;SDS011;55400;51.824;-0.196;2023-09-07T20:16:58;4.30;;;3.10;;
68144;SDS011;55400;51.824;-0.196;2023-09-07T20:20:57;5.30;;;3.40;;
68144;SDS011;55400;51.824;-0.196;2023-09-07T20:24:57;4.00;;;3.30;;
68144;SDS011;55400;51.824;-0.196;2023-09-07T20:28:57;5.10;;;3.20;;
68144;SDS011;55400;51.824;-0.196;2023-09-07T20:32:57;4.60;;;3.40;;
68144;SDS011;55400;51.824;-0.196;2023-09-07T20:36:57;4.10;;;3.20;;
68144;SDS011;55400;51.824;-0.196;2023-09-07T20:40:57;6.00;;;3.10;;
68144;SDS011;55400;51.824;-0.196;2023-09-07T20:44:58;6.30;;;3.50;;
68144;SDS011;55400;51.824;-0.196;2023-09-07T20:48:59;4.60;;;3.40;;
68144;SDS011;55400;51.824;-0.196;2023-09-07T20:52:57;5.60;;;3.40;;
68144;SDS011;55400;51.824;-0.196;2023-09-07T20:56:57;3.50;;;3.20;;
68144;SDS011;55400;51.824;-0.196;2023-09-07T21:00:57;5.30;;;3.30;;
68144;SDS011;55400;51.824;-0.196;2023-09-07T21:04:57;5.20;;;3.40;;
68144;SDS011;55400;51.824;-0.196;2023-09-07T21:08:57;4.20;;;3.20;;
68144;SDS011;55400;51.824;-0.196;2023-09-07T21:12:58;7.30;;;3.80;;
68144;SDS011;55400;51.824;-0.196;2023-09-07T21:16:57;5.50;;;3.20;;
68144;SDS011;55400;51.824;-0.196;2023-09-07T21:20:57;5.30;;;3.50;;
68144;SDS011;55400;51.824;-0.196;2023-09-07T21:24:57;3.80;;;3.30;;
68144;SDS011;55400;51.824;-0.196;2023-09-07T21:28:57;5.40;;;3.30;;
68144;SDS011;55400;51.824;-0.196;2023-09-07T21:32:57;3.80;;;3.20;;
68144;SDS011;55400;51.824;-0.196;2023-09-07T21:36:57;3.90;;;3.40;;
68144;SDS011;55400;51.824;-0.196;2023-09-07T21:40:57;4.90;;;3.30;;
68144;SDS011;55400;51.824;-0.196;2023-09-07T21:44:57;4.90;;;3.40;;
68144;SDS011;55400;51.824;-0.196;2023-09-07T21:48:57;4.00;;;3.50;;
68144;SDS011;55400;51.824;-0.196;2023-09-07T21:52:57;4.00;;;3.20;;
68144;SDS011;55400;51.824;-0.196;2023-09-07T21:56:58;4.50;;;3.30;;
68144;SDS011;55400;51.824;-0.196;2023-09-07T22:00:58;4.30;;;3.10;;
68144;SDS011;55400;51.824;-0.196;2023-09-07T22:04:57;5.90;;;3.40;;
68144;SDS011;55400;51.824;-0.196;2023-09-07T22:08:58;5.50;;;3.70;;
68144;SDS011;55400;51.824;-0.196;2023-09-07T22:12:57;5.50;;;3.50;;
68144;SDS011;55400;51.824;-0.196;2023-09-07T22:16:58;4.50;;;3.50;;
68144;SDS011;55400;51.824;-0.196;2023-09-07T22:20:58;4.50;;;3.30;;
68144;SDS011;55400;51.824;-0.196;2023-09-07T22:24:58;4.30;;;3.60;;
68144;SDS011;55400;51.824;-0.196;2023-09-07T22:28:58;4.80;;;3.40;;
68144;SDS011;55400;51.824;-0.196;2023-09-07T22:32:58;4.70;;;3.60;;
68144;SDS011;55400;51.824;-0.196;2023-09-07T22:36:59;4.80;;;3.50;;
68144;SDS011;55400;51.824;-0.196;2023-09-07T22:40:58;5.10;;;3.70;;
68144;SDS011;55400;51.824;-0.196;2023-09-07T22:44:58;4.60;;;3.60;;
68144;SDS011;55400;51.824;-0.196;2023-09-07T22:48:58;5.60;;;3.70;;
68144;SDS011;55400;51.824;-0.196;2023-09-07T22:52:58;4.60;;;3.60;;
68144;SDS011;55400;51.824;-0.196;2023-09-07T22:56:58;4.60;;;3.50;;
68144;SDS011;55400;51.824;-0.196;2023-09-07T23:00:58;5.80;;;4.40;;
68144;SDS011;55400;51.824;-0.196;2023-09-07T23:04:58;5.60;;;4.00;;
68144;SDS011;55400;51.824;-0.196;2023-09-07T23:08:58;10.00;;;3.80;;
68144;SDS011;55400;51.824;-0.196;2023-09-07T23:12:58;6.50;;;4.00;;
68144;SDS011;55400;51.824;-0.196;2023-09-07T23:16:58;6.70;;;4.10;;
68144;SDS011;55400;51.824;-0.196;2023-09-07T23:20:58;5.50;;;3.90;;
68144;SDS011;55400;51.824;-0.196;2023-09-07T23:24:58;5.30;;;3.60;;
68144;SDS011;55400;51.824;-0.196;2023-09-07T23:28:58;4.80;;;3.90;;
68144;SDS011;55400;51.824;-0.196;2023-09-07T23:32:58;5.70;;;3.80;;
68144;SDS011;55400;51.824;-0.196;2023-09-07T23:36:58;7.00;;;3.80;;
68144;SDS011;55400;51.824;-0.196;2023-09-07T23:40:58;4.80;;;3.60;;
68144;SDS011;55400;51.824;-0.196;2023-09-07T23:44:58;4.60;;;3.70;;
68144;SDS011;55400;51.824;-0.196;2023-09-07T23:48:58;4.90;;;3.80;;
68144;SDS011;55400;51.824;-0.196;2023-09-07T23:52:59;5.50;;;3.90;;
68144;SDS011;55400;51.824;-0.196;2023-09-07T23:56:58;5.80;;;3.90;;
